Terminal Aerodrome Forecast
Issued by NWS

Home | Current Version | Previous Version | Text Only | Print | Product List | Glossary On
Versions: 1 2 3 4 5 6 7 8 9 10 11 12 13 14 15 16 17
000
FTUS42 KTBW 181305 AAA
TAFLAL
TAF AMD
KLAL 181305Z 1813/1912 VRB04KT P6SM SCT003 BKN250
      TEMPO 1813/1814 5SM BR BKN003
     FM181500 25007KT P6SM SCT040 BKN250
     FM182000 27008KT P6SM VCTS SCT020CB BKN040
     FM190000 VRB05KT P6SM SCT030 BKN100
     FM190600 VRB03KT 6SM BR SCT250=

USA.gov is the U.S. government's official web portal to all federal, state and local government web resources and services.